createdAt,value
2022-12-29T00:07:28.974Z,75446.97
2022-12-29T00:17:31.532Z,75442.91
2022-12-29T00:27:56.889Z,75434.81
2022-12-29T00:38:26.546Z,75432.78
2022-12-29T00:49:05.409Z,75438.88
2022-12-29T00:59:10.690Z,75430.75
2022-12-29T01:09:35.821Z,75412.56
2022-12-29T01:19:43.361Z,75408.50
2022-12-29T01:29:48.590Z,75414.56
2022-12-29T01:39:55.226Z,75422.69
2022-12-29T01:50:03.090Z,75414.56
2022-12-29T02:00:14.800Z,75422.69
2022-12-29T02:10:17.194Z,75418.63
2022-12-29T02:20:57.024Z,75438.88
2022-12-29T02:31:11.226Z,75444.94
2022-12-29T02:41:26.276Z,75463.16
2022-12-29T02:51:41.873Z,75471.25
2022-12-29T03:02:15.222Z,75499.56
2022-12-29T03:13:18.097Z,75521.84
2022-12-29T03:23:23.500Z,75519.81
2022-12-29T03:33:33.028Z,75531.94
2022-12-29T03:43:43.050Z,75531.94
2022-12-29T03:53:51.049Z,75588.63
2022-12-29T04:04:00.819Z,75560.28
2022-12-29T04:14:05.891Z,75558.25
2022-12-29T04:24:14.258Z,75566.34
2022-12-29T04:34:22.168Z,75560.28
2022-12-29T04:44:29.036Z,75562.31
2022-12-29T04:54:45.600Z,75568.38
2022-12-29T05:04:54.579Z,75550.16
2022-12-29T05:14:59.765Z,75540.03
2022-12-29T05:25:02.161Z,75546.13
2022-12-29T05:35:08.670Z,75540.03
2022-12-29T05:45:11.557Z,75542.06
2022-12-29T05:55:29.186Z,75523.84
2022-12-29T06:05:34.580Z,75521.84
2022-12-29T06:15:42.482Z,75507.66
2022-12-29T06:25:49.728Z,75495.53
2022-12-29T06:35:53.676Z,75499.56
2022-12-29T06:46:03.393Z,75503.63
2022-12-29T06:56:06.601Z,75487.44
2022-12-29T07:06:08.948Z,75457.06
2022-12-29T07:16:13.980Z,75440.88
2022-12-29T07:26:23.033Z,75426.72
2022-12-29T07:36:30.748Z,75410.53
2022-12-29T07:46:56.343Z,75394.34
2022-12-29T07:57:03.198Z,75382.19
2022-12-29T08:07:08.795Z,75349.81
2022-12-29T08:17:13.240Z,75317.44
2022-12-29T08:27:20.722Z,75285.06
2022-12-29T08:37:31.284Z,75248.66
2022-12-29T08:47:37.050Z,75214.25
2022-12-29T08:57:39.245Z,75196.03
2022-12-29T09:07:49.033Z,75177.81
2022-12-29T09:17:51.216Z,75143.41
2022-12-29T09:27:57.877Z,75088.78
2022-12-29T09:38:07.679Z,75078.66
2022-12-29T09:48:22.698Z,75060.47
2022-12-29T09:58:45.652Z,75032.13
2022-12-29T10:09:10.109Z,75026.06
2022-12-29T10:19:33.374Z,75022.00
2022-12-29T10:29:41.045Z,75009.88
2022-12-29T10:39:52.581Z,75001.78
2022-12-29T10:50:04.117Z,74985.59
2022-12-29T11:00:21.747Z,74963.34
2022-12-29T11:11:12.985Z,74926.91
2022-12-29T11:21:43.344Z,74892.50
2022-12-29T11:31:55.951Z,74886.44
2022-12-29T11:42:04.828Z,74900.59
2022-12-29T11:52:10.536Z,74890.50
2022-12-29T12:02:21.892Z,74880.38
2022-12-29T12:12:41.726Z,74860.13
2022-12-29T12:22:55.487Z,74843.94
2022-12-29T12:33:32.775Z,74825.75
2022-12-29T12:43:49.717Z,74803.47
2022-12-29T12:54:16.677Z,74779.19
2022-12-29T13:04:44.122Z,74773.13
2022-12-29T13:14:59.214Z,74771.09
2022-12-29T13:25:04.496Z,74781.22
2022-12-29T13:35:25.449Z,74783.25
2022-12-29T13:45:32.600Z,74783.25
2022-12-29T13:55:59.683Z,74787.28
2022-12-29T14:06:31.183Z,74793.38
2022-12-29T14:16:38.185Z,74771.09
2022-12-29T14:26:47.296Z,74763.03
2022-12-29T14:37:05.695Z,74758.97
2022-12-29T14:47:09.169Z,74767.06
2022-12-29T14:57:29.628Z,74767.06
2022-12-29T15:07:33.420Z,74775.16
2022-12-29T15:17:35.975Z,74799.44
2022-12-29T15:27:42.970Z,74799.44
2022-12-29T15:37:46.364Z,74801.47
2022-12-29T15:47:53.357Z,74815.63
2022-12-29T15:58:00.634Z,74815.63
2022-12-29T16:08:28.400Z,74819.66
2022-12-29T16:18:37.908Z,74823.72
2022-12-29T16:28:46.966Z,74821.69
2022-12-29T16:38:49.142Z,74839.91
2022-12-29T16:48:54.786Z,74856.09
2022-12-29T16:59:08.978Z,74860.13
2022-12-29T17:09:23.355Z,74848.00
2022-12-29T17:19:34.392Z,74848.00
2022-12-29T17:29:40.218Z,74839.91
2022-12-29T17:39:47.006Z,74835.84
2022-12-29T17:49:51.310Z,74841.94
2022-12-29T17:59:53.564Z,74833.84
2022-12-29T18:09:56.128Z,74839.91
2022-12-29T18:20:02.969Z,74852.03
2022-12-29T18:30:08.612Z,74880.38
2022-12-29T18:40:14.314Z,74880.38
2022-12-29T18:50:18.480Z,74890.50
2022-12-29T19:00:26.549Z,74884.41
2022-12-29T19:10:31.926Z,74882.41
2022-12-29T19:20:41.685Z,74880.38
2022-12-29T19:30:51.880Z,74888.47
2022-12-29T19:40:57.354Z,74898.59
2022-12-29T19:51:20.804Z,74892.50
2022-12-29T20:01:27.328Z,74882.41
2022-12-29T20:11:36.356Z,74872.28
2022-12-29T20:21:40.875Z,74868.22
2022-12-29T20:31:46.464Z,74860.13
2022-12-29T20:41:52.261Z,74868.22
2022-12-29T20:52:10.110Z,74862.16
2022-12-29T21:02:20.722Z,74856.09
2022-12-29T21:12:25.439Z,74848.00
2022-12-29T21:22:29.901Z,74843.94
2022-12-29T21:32:37.581Z,74848.00
2022-12-29T21:42:45.385Z,74843.94
2022-12-29T21:52:48.623Z,74827.75
2022-12-29T22:03:12.862Z,74823.72
2022-12-29T22:13:23.128Z,74813.59
2022-12-29T22:23:26.659Z,74817.66
2022-12-29T22:33:28.988Z,74839.91
2022-12-29T22:43:34.340Z,74837.88
2022-12-29T22:53:41.603Z,74833.84
2022-12-29T23:03:47.469Z,74831.81
2022-12-29T23:13:52.291Z,74848.00
2022-12-29T23:23:55.479Z,74852.03
2022-12-29T23:34:01.448Z,74860.13
2022-12-29T23:44:04.334Z,74864.19
2022-12-29T23:54:08.853Z,74876.31
